sensor_id;sensor_type;location;lat;lon;timestamp;P1;durP1;ratioP1;P2;durP2;ratioP2
19940;SDS011;10132;50.864;5.176;2023-05-16T00:00:36;10.70;;;3.77;;
19940;SDS011;10132;50.864;5.176;2023-05-16T00:02:38;13.90;;;3.40;;
19940;SDS011;10132;50.864;5.176;2023-05-16T00:04:41;14.30;;;3.73;;
19940;SDS011;10132;50.864;5.176;2023-05-16T00:06:43;15.83;;;3.80;;
19940;SDS011;10132;50.864;5.176;2023-05-16T00:08:45;15.73;;;3.27;;
19940;SDS011;10132;50.864;5.176;2023-05-16T00:10:49;13.57;;;3.37;;
19940;SDS011;10132;50.864;5.176;2023-05-16T00:12:51;11.27;;;3.30;;
19940;SDS011;10132;50.864;5.176;2023-05-16T00:14:55;15.03;;;3.77;;
19940;SDS011;10132;50.864;5.176;2023-05-16T00:16:58;17.17;;;3.40;;
19940;SDS011;10132;50.864;5.176;2023-05-16T00:19:01;16.03;;;3.60;;
19940;SDS011;10132;50.864;5.176;2023-05-16T00:21:03;16.53;;;3.27;;
19940;SDS011;10132;50.864;5.176;2023-05-16T00:23:08;19.07;;;3.97;;
19940;SDS011;10132;50.864;5.176;2023-05-16T00:25:11;20.00;;;3.03;;
19940;SDS011;10132;50.864;5.176;2023-05-16T00:27:15;14.83;;;3.23;;
19940;SDS011;10132;50.864;5.176;2023-05-16T00:29:17;10.57;;;3.10;;
19940;SDS011;10132;50.864;5.176;2023-05-16T00:31:19;12.97;;;3.23;;
19940;SDS011;10132;50.864;5.176;2023-05-16T00:33:21;15.73;;;3.53;;
19940;SDS011;10132;50.864;5.176;2023-05-16T00:35:24;14.37;;;3.03;;
19940;SDS011;10132;50.864;5.176;2023-05-16T00:37:26;16.50;;;3.40;;
19940;SDS011;10132;50.864;5.176;2023-05-16T00:39:29;16.83;;;2.87;;
19940;SDS011;10132;50.864;5.176;2023-05-16T00:41:32;15.53;;;3.10;;
19940;SDS011;10132;50.864;5.176;2023-05-16T00:43:36;14.57;;;3.20;;
19940;SDS011;10132;50.864;5.176;2023-05-16T00:45:39;15.73;;;3.30;;
19940;SDS011;10132;50.864;5.176;2023-05-16T00:47:41;15.17;;;3.40;;
19940;SDS011;10132;50.864;5.176;2023-05-16T00:49:44;16.40;;;3.03;;
19940;SDS011;10132;50.864;5.176;2023-05-16T00:51:47;16.80;;;3.30;;
19940;SDS011;10132;50.864;5.176;2023-05-16T00:53:50;20.43;;;3.50;;
19940;SDS011;10132;50.864;5.176;2023-05-16T00:55:52;15.47;;;3.33;;
19940;SDS011;10132;50.864;5.176;2023-05-16T00:57:55;14.13;;;2.93;;
19940;SDS011;10132;50.864;5.176;2023-05-16T01:00:00;14.70;;;3.20;;
19940;SDS011;10132;50.864;5.176;2023-05-16T01:02:03;18.30;;;3.00;;
19940;SDS011;10132;50.864;5.176;2023-05-16T01:04:05;16.77;;;2.90;;
19940;SDS011;10132;50.864;5.176;2023-05-16T01:06:08;15.13;;;2.73;;
19940;SDS011;10132;50.864;5.176;2023-05-16T01:08:11;16.43;;;3.40;;
19940;SDS011;10132;50.864;5.176;2023-05-16T01:10:13;18.17;;;3.70;;
19940;SDS011;10132;50.864;5.176;2023-05-16T01:12:18;13.73;;;2.80;;
19940;SDS011;10132;50.864;5.176;2023-05-16T01:14:28;13.50;;;3.27;;
19940;SDS011;10132;50.864;5.176;2023-05-16T01:16:41;13.17;;;3.00;;
19940;SDS011;10132;50.864;5.176;2023-05-16T01:18:50;18.43;;;3.40;;
19940;SDS011;10132;50.864;5.176;2023-05-16T01:20:58;13.73;;;3.00;;
19940;SDS011;10132;50.864;5.176;2023-05-16T01:23:11;16.67;;;2.93;;
19940;SDS011;10132;50.864;5.176;2023-05-16T01:25:28;19.00;;;3.20;;
19940;SDS011;10132;50.864;5.176;2023-05-16T01:27:37;16.20;;;3.03;;
19940;SDS011;10132;50.864;5.176;2023-05-16T01:29:39;18.20;;;3.10;;
19940;SDS011;10132;50.864;5.176;2023-05-16T01:31:41;14.07;;;3.07;;
19940;SDS011;10132;50.864;5.176;2023-05-16T01:33:44;12.90;;;2.73;;
19940;SDS011;10132;50.864;5.176;2023-05-16T01:35:50;16.83;;;2.53;;
19940;SDS011;10132;50.864;5.176;2023-05-16T01:37:58;11.57;;;2.90;;
19940;SDS011;10132;50.864;5.176;2023-05-16T01:40:11;13.30;;;3.00;;
19940;SDS011;10132;50.864;5.176;2023-05-16T01:42:16;23.73;;;3.80;;
19940;SDS011;10132;50.864;5.176;2023-05-16T01:44:24;15.93;;;2.93;;
19940;SDS011;10132;50.864;5.176;2023-05-16T01:46:32;15.80;;;3.07;;
19940;SDS011;10132;50.864;5.176;2023-05-16T01:48:42;13.20;;;3.20;;
19940;SDS011;10132;50.864;5.176;2023-05-16T01:50:53;17.00;;;2.93;;
19940;SDS011;10132;50.864;5.176;2023-05-16T01:52:57;20.33;;;3.53;;
19940;SDS011;10132;50.864;5.176;2023-05-16T01:55:03;13.30;;;2.90;;
19940;SDS011;10132;50.864;5.176;2023-05-16T01:57:09;14.10;;;3.00;;
19940;SDS011;10132;50.864;5.176;2023-05-16T01:59:12;16.03;;;2.50;;
19940;SDS011;10132;50.864;5.176;2023-05-16T02:01:16;17.20;;;3.90;;
19940;SDS011;10132;50.864;5.176;2023-05-16T02:03:18;13.77;;;3.10;;
19940;SDS011;10132;50.864;5.176;2023-05-16T02:05:21;15.80;;;3.00;;
19940;SDS011;10132;50.864;5.176;2023-05-16T02:07:23;13.80;;;3.13;;
19940;SDS011;10132;50.864;5.176;2023-05-16T02:09:26;13.43;;;2.53;;
19940;SDS011;10132;50.864;5.176;2023-05-16T02:11:28;23.50;;;3.40;;
19940;SDS011;10132;50.864;5.176;2023-05-16T02:13:31;12.57;;;3.20;;
19940;SDS011;10132;50.864;5.176;2023-05-16T02:15:33;16.10;;;3.40;;
19940;SDS011;10132;50.864;5.176;2023-05-16T02:17:37;15.03;;;2.67;;
19940;SDS011;10132;50.864;5.176;2023-05-16T02:19:39;17.77;;;3.80;;
19940;SDS011;10132;50.864;5.176;2023-05-16T02:21:41;11.97;;;2.57;;
19940;SDS011;10132;50.864;5.176;2023-05-16T02:23:43;15.50;;;3.13;;
19940;SDS011;10132;50.864;5.176;2023-05-16T02:25:45;17.00;;;3.30;;
19940;SDS011;10132;50.864;5.176;2023-05-16T02:27:47;13.73;;;3.07;;
19940;SDS011;10132;50.864;5.176;2023-05-16T02:29:50;17.63;;;3.13;;
19940;SDS011;10132;50.864;5.176;2023-05-16T02:31:52;15.07;;;2.43;;
19940;SDS011;10132;50.864;5.176;2023-05-16T02:33:56;17.67;;;3.23;;
19940;SDS011;10132;50.864;5.176;2023-05-16T02:35:58;12.73;;;2.90;;
19940;SDS011;10132;50.864;5.176;2023-05-16T02:38:01;20.27;;;3.40;;
19940;SDS011;10132;50.864;5.176;2023-05-16T02:40:04;14.40;;;3.20;;
19940;SDS011;10132;50.864;5.176;2023-05-16T02:42:08;14.27;;;2.73;;
19940;SDS011;10132;50.864;5.176;2023-05-16T02:44:10;15.40;;;3.63;;
19940;SDS011;10132;50.864;5.176;2023-05-16T02:46:19;15.73;;;2.80;;
19940;SDS011;10132;50.864;5.176;2023-05-16T02:48:22;15.37;;;2.97;;
19940;SDS011;10132;50.864;5.176;2023-05-16T02:50:26;14.63;;;2.80;;
19940;SDS011;10132;50.864;5.176;2023-05-16T02:52:28;14.17;;;2.70;;
19940;SDS011;10132;50.864;5.176;2023-05-16T02:54:30;13.77;;;2.80;;
19940;SDS011;10132;50.864;5.176;2023-05-16T02:56:33;12.67;;;2.50;;
19940;SDS011;10132;50.864;5.176;2023-05-16T02:58:35;14.83;;;2.80;;
19940;SDS011;10132;50.864;5.176;2023-05-16T03:00:37;13.33;;;3.10;;
19940;SDS011;10132;50.864;5.176;2023-05-16T03:02:40;17.07;;;3.30;;
19940;SDS011;10132;50.864;5.176;2023-05-16T03:04:43;11.23;;;2.50;;
19940;SDS011;10132;50.864;5.176;2023-05-16T03:06:46;10.33;;;2.37;;
19940;SDS011;10132;50.864;5.176;2023-05-16T03:08:50;18.77;;;3.30;;
19940;SDS011;10132;50.864;5.176;2023-05-16T03:10:52;15.40;;;3.20;;
19940;SDS011;10132;50.864;5.176;2023-05-16T03:12:54;15.20;;;2.90;;
19940;SDS011;10132;50.864;5.176;2023-05-16T03:14:56;16.23;;;2.77;;
19940;SDS011;10132;50.864;5.176;2023-05-16T03:17:00;14.87;;;3.00;;
19940;SDS011;10132;50.864;5.176;2023-05-16T03:19:02;15.30;;;2.87;;
19940;SDS011;10132;50.864;5.176;2023-05-16T03:21:04;10.80;;;2.70;;
19940;SDS011;10132;50.864;5.176;2023-05-16T03:23:08;11.53;;;2.90;;
19940;SDS011;10132;50.864;5.176;2023-05-16T03:25:10;11.00;;;2.60;;
19940;SDS011;10132;50.864;5.176;2023-05-16T03:27:13;18.27;;;3.30;;
19940;SDS011;10132;50.864;5.176;2023-05-16T03:29:15;17.70;;;3.40;;
19940;SDS011;10132;50.864;5.176;2023-05-16T03:31:17;17.33;;;3.43;;
19940;SDS011;10132;50.864;5.176;2023-05-16T03:33:20;17.63;;;2.53;;
19940;SDS011;10132;50.864;5.176;2023-05-16T03:35:22;14.30;;;3.47;;
19940;SDS011;10132;50.864;5.176;2023-05-16T03:37:24;12.43;;;2.53;;
19940;SDS011;10132;50.864;5.176;2023-05-16T03:39:28;11.70;;;2.60;;
19940;SDS011;10132;50.864;5.176;2023-05-16T03:41:32;15.60;;;3.30;;
19940;SDS011;10132;50.864;5.176;2023-05-16T03:43:35;18.30;;;3.10;;
19940;SDS011;10132;50.864;5.176;2023-05-16T03:45:37;12.53;;;2.30;;
19940;SDS011;10132;50.864;5.176;2023-05-16T03:47:39;15.13;;;2.77;;
19940;SDS011;10132;50.864;5.176;2023-05-16T03:49:42;14.60;;;2.47;;
19940;SDS011;10132;50.864;5.176;2023-05-16T03:51:44;11.57;;;2.80;;
19940;SDS011;10132;50.864;5.176;2023-05-16T03:53:46;12.60;;;3.00;;
19940;SDS011;10132;50.864;5.176;2023-05-16T03:55:50;13.80;;;2.87;;
19940;SDS011;10132;50.864;5.176;2023-05-16T03:57:52;16.27;;;3.03;;
19940;SDS011;10132;50.864;5.176;2023-05-16T03:59:54;11.67;;;2.70;;
19940;SDS011;10132;50.864;5.176;2023-05-16T04:01:57;14.67;;;3.13;;
19940;SDS011;10132;50.864;5.176;2023-05-16T04:03:59;17.57;;;2.73;;
19940;SDS011;10132;50.864;5.176;2023-05-16T04:06:02;14.93;;;3.03;;
19940;SDS011;10132;50.864;5.176;2023-05-16T04:08:05;17.33;;;4.03;;
19940;SDS011;10132;50.864;5.176;2023-05-16T04:10:07;14.80;;;3.83;;
19940;SDS011;10132;50.864;5.176;2023-05-16T04:12:12;17.77;;;3.47;;
19940;SDS011;10132;50.864;5.176;2023-05-16T04:14:15;14.10;;;3.30;;
19940;SDS011;10132;50.864;5.176;2023-05-16T04:16:17;12.67;;;2.63;;
19940;SDS011;10132;50.864;5.176;2023-05-16T04:18:19;17.03;;;3.37;;
19940;SDS011;10132;50.864;5.176;2023-05-16T04:20:21;16.50;;;3.70;;
19940;SDS011;10132;50.864;5.176;2023-05-16T04:22:24;15.90;;;3.73;;
19940;SDS011;10132;50.864;5.176;2023-05-16T04:24:26;15.70;;;3.50;;
19940;SDS011;10132;50.864;5.176;2023-05-16T04:26:29;15.50;;;3.87;;
19940;SDS011;10132;50.864;5.176;2023-05-16T04:28:32;15.50;;;3.50;;
19940;SDS011;10132;50.864;5.176;2023-05-16T04:30:35;12.30;;;3.33;;
19940;SDS011;10132;50.864;5.176;2023-05-16T04:32:37;12.70;;;3.43;;
19940;SDS011;10132;50.864;5.176;2023-05-16T04:34:39;15.40;;;3.57;;
19940;SDS011;10132;50.864;5.176;2023-05-16T04:36:46;15.00;;;3.50;;
19940;SDS011;10132;50.864;5.176;2023-05-16T04:38:48;10.87;;;3.07;;
19940;SDS011;10132;50.864;5.176;2023-05-16T04:40:50;11.13;;;3.50;;
19940;SDS011;10132;50.864;5.176;2023-05-16T04:42:52;17.47;;;3.63;;
19940;SDS011;10132;50.864;5.176;2023-05-16T04:44:56;14.13;;;3.40;;
19940;SDS011;10132;50.864;5.176;2023-05-16T04:46:58;19.47;;;3.73;;
19940;SDS011;10132;50.864;5.176;2023-05-16T04:49:01;12.57;;;3.30;;
19940;SDS011;10132;50.864;5.176;2023-05-16T04:51:03;16.97;;;3.33;;
19940;SDS011;10132;50.864;5.176;2023-05-16T04:53:06;25.67;;;3.60;;
19940;SDS011;10132;50.864;5.176;2023-05-16T04:55:08;12.47;;;3.33;;
19940;SDS011;10132;50.864;5.176;2023-05-16T04:57:11;12.30;;;3.17;;
19940;SDS011;10132;50.864;5.176;2023-05-16T04:59:13;22.30;;;3.43;;
19940;SDS011;10132;50.864;5.176;2023-05-16T05:01:17;13.93;;;3.30;;
19940;SDS011;10132;50.864;5.176;2023-05-16T05:06:16;10.47;;;3.00;;
19940;SDS011;10132;50.864;5.176;2023-05-16T05:08:19;16.23;;;3.73;;
19940;SDS011;10132;50.864;5.176;2023-05-16T05:10:22;18.87;;;3.17;;
19940;SDS011;10132;50.864;5.176;2023-05-16T05:12:26;13.47;;;3.13;;
19940;SDS011;10132;50.864;5.176;2023-05-16T05:14:28;17.13;;;3.87;;
19940;SDS011;10132;50.864;5.176;2023-05-16T05:16:32;15.97;;;3.87;;
19940;SDS011;10132;50.864;5.176;2023-05-16T05:18:36;14.73;;;3.87;;
19940;SDS011;10132;50.864;5.176;2023-05-16T05:20:39;14.57;;;3.50;;
19940;SDS011;10132;50.864;5.176;2023-05-16T05:22:41;17.63;;;3.73;;
19940;SDS011;10132;50.864;5.176;2023-05-16T05:24:44;12.03;;;3.27;;
19940;SDS011;10132;50.864;5.176;2023-05-16T05:26:46;14.30;;;3.03;;
19940;SDS011;10132;50.864;5.176;2023-05-16T05:28:48;16.83;;;3.40;;
19940;SDS011;10132;50.864;5.176;2023-05-16T05:30:51;13.73;;;3.70;;
19940;SDS011;10132;50.864;5.176;2023-05-16T05:32:55;17.47;;;3.57;;
19940;SDS011;10132;50.864;5.176;2023-05-16T05:34:57;16.40;;;3.63;;
19940;SDS011;10132;50.864;5.176;2023-05-16T05:36:59;17.50;;;3.83;;
19940;SDS011;10132;50.864;5.176;2023-05-16T05:39:02;18.53;;;3.40;;
19940;SDS011;10132;50.864;5.176;2023-05-16T05:41:04;15.77;;;4.13;;
19940;SDS011;10132;50.864;5.176;2023-05-16T05:43:06;17.63;;;3.97;;
19940;SDS011;10132;50.864;5.176;2023-05-16T05:45:10;13.33;;;3.30;;
19940;SDS011;10132;50.864;5.176;2023-05-16T05:47:13;19.17;;;3.57;;
19940;SDS011;10132;50.864;5.176;2023-05-16T05:49:19;14.17;;;3.13;;
19940;SDS011;10132;50.864;5.176;2023-05-16T05:51:23;15.93;;;3.40;;
19940;SDS011;10132;50.864;5.176;2023-05-16T05:53:25;14.67;;;3.20;;
19940;SDS011;10132;50.864;5.176;2023-05-16T05:55:28;11.70;;;2.73;;
19940;SDS011;10132;50.864;5.176;2023-05-16T05:57:30;10.70;;;2.90;;
19940;SDS011;10132;50.864;5.176;2023-05-16T05:59:32;18.27;;;3.57;;
19940;SDS011;10132;50.864;5.176;2023-05-16T06:01:35;15.67;;;3.20;;
19940;SDS011;10132;50.864;5.176;2023-05-16T06:03:37;16.83;;;3.80;;
19940;SDS011;10132;50.864;5.176;2023-05-16T06:05:41;14.10;;;2.90;;
19940;SDS011;10132;50.864;5.176;2023-05-16T06:07:44;14.33;;;2.80;;
19940;SDS011;10132;50.864;5.176;2023-05-16T06:09:46;9.03;;;2.57;;
19940;SDS011;10132;50.864;5.176;2023-05-16T06:11:49;23.30;;;3.17;;
19940;SDS011;10132;50.864;5.176;2023-05-16T06:13:52;15.13;;;3.60;;
19940;SDS011;10132;50.864;5.176;2023-05-16T06:15:55;12.53;;;2.63;;
19940;SDS011;10132;50.864;5.176;2023-05-16T06:17:57;14.53;;;3.30;;
19940;SDS011;10132;50.864;5.176;2023-05-16T06:19:59;19.47;;;3.00;;
19940;SDS011;10132;50.864;5.176;2023-05-16T06:22:03;15.00;;;3.37;;
19940;SDS011;10132;50.864;5.176;2023-05-16T06:24:05;14.73;;;3.13;;
19940;SDS011;10132;50.864;5.176;2023-05-16T06:26:08;9.30;;;2.50;;
19940;SDS011;10132;50.864;5.176;2023-05-16T06:28:10;12.30;;;3.10;;
19940;SDS011;10132;50.864;5.176;2023-05-16T06:30:18;15.77;;;3.00;;
19940;SDS011;10132;50.864;5.176;2023-05-16T06:32:21;15.43;;;3.23;;
19940;SDS011;10132;50.864;5.176;2023-05-16T06:34:24;12.60;;;3.13;;
19940;SDS011;10132;50.864;5.176;2023-05-16T06:36:27;11.87;;;2.40;;
19940;SDS011;10132;50.864;5.176;2023-05-16T06:38:31;12.33;;;2.40;;
19940;SDS011;10132;50.864;5.176;2023-05-16T06:40:34;16.73;;;3.10;;
19940;SDS011;10132;50.864;5.176;2023-05-16T06:42:37;12.67;;;2.83;;
19940;SDS011;10132;50.864;5.176;2023-05-16T06:44:39;14.30;;;2.33;;
19940;SDS011;10132;50.864;5.176;2023-05-16T06:46:41;13.47;;;2.53;;
19940;SDS011;10132;50.864;5.176;2023-05-16T06:48:45;13.20;;;2.50;;
19940;SDS011;10132;50.864;5.176;2023-05-16T06:50:48;13.27;;;2.50;;
19940;SDS011;10132;50.864;5.176;2023-05-16T06:52:51;12.63;;;2.63;;
19940;SDS011;10132;50.864;5.176;2023-05-16T06:54:54;9.77;;;2.10;;
19940;SDS011;10132;50.864;5.176;2023-05-16T06:56:57;9.97;;;2.10;;
19940;SDS011;10132;50.864;5.176;2023-05-16T06:58:59;13.30;;;2.43;;
19940;SDS011;10132;50.864;5.176;2023-05-16T07:01:01;14.60;;;2.67;;
19940;SDS011;10132;50.864;5.176;2023-05-16T07:03:04;7.53;;;1.67;;
19940;SDS011;10132;50.864;5.176;2023-05-16T07:08:03;11.37;;;2.17;;
19940;SDS011;10132;50.864;5.176;2023-05-16T07:10:08;10.90;;;1.70;;
19940;SDS011;10132;50.864;5.176;2023-05-16T07:12:11;10.63;;;2.10;;
19940;SDS011;10132;50.864;5.176;2023-05-16T07:14:13;10.73;;;2.63;;
19940;SDS011;10132;50.864;5.176;2023-05-16T07:16:23;9.80;;;1.90;;
19940;SDS011;10132;50.864;5.176;2023-05-16T07:18:27;7.33;;;1.87;;
19940;SDS011;10132;50.864;5.176;2023-05-16T07:20:29;12.20;;;2.60;;
19940;SDS011;10132;50.864;5.176;2023-05-16T07:22:32;6.83;;;2.00;;
19940;SDS011;10132;50.864;5.176;2023-05-16T07:24:34;10.13;;;1.80;;
19940;SDS011;10132;50.864;5.176;2023-05-16T07:26:38;10.97;;;2.27;;
19940;SDS011;10132;50.864;5.176;2023-05-16T07:28:41;10.60;;;2.40;;
19940;SDS011;10132;50.864;5.176;2023-05-16T07:30:44;10.73;;;2.30;;
19940;SDS011;10132;50.864;5.176;2023-05-16T07:32:48;10.67;;;2.30;;
19940;SDS011;10132;50.864;5.176;2023-05-16T07:34:52;9.50;;;2.13;;
19940;SDS011;10132;50.864;5.176;2023-05-16T07:36:56;9.13;;;2.20;;
19940;SDS011;10132;50.864;5.176;2023-05-16T07:38:59;9.70;;;2.50;;
19940;SDS011;10132;50.864;5.176;2023-05-16T07:41:02;11.43;;;1.97;;
19940;SDS011;10132;50.864;5.176;2023-05-16T07:43:05;10.47;;;2.13;;
19940;SDS011;10132;50.864;5.176;2023-05-16T07:45:09;13.10;;;2.10;;
19940;SDS011;10132;50.864;5.176;2023-05-16T07:47:12;8.27;;;2.13;;
19940;SDS011;10132;50.864;5.176;2023-05-16T07:49:16;13.77;;;2.30;;
19940;SDS011;10132;50.864;5.176;2023-05-16T07:51:18;8.53;;;2.17;;
19940;SDS011;10132;50.864;5.176;2023-05-16T07:53:21;13.77;;;2.27;;
19940;SDS011;10132;50.864;5.176;2023-05-16T07:55:23;10.20;;;1.97;;
19940;SDS011;10132;50.864;5.176;2023-05-16T07:57:26;8.03;;;1.70;;
19940;SDS011;10132;50.864;5.176;2023-05-16T07:59:30;8.43;;;2.07;;
19940;SDS011;10132;50.864;5.176;2023-05-16T08:01:33;10.63;;;1.93;;
19940;SDS011;10132;50.864;5.176;2023-05-16T08:03:37;10.87;;;2.00;;
19940;SDS011;10132;50.864;5.176;2023-05-16T08:05:40;9.47;;;2.23;;
19940;SDS011;10132;50.864;5.176;2023-05-16T08:07:42;8.03;;;1.80;;
19940;SDS011;10132;50.864;5.176;2023-05-16T08:09:47;9.30;;;1.90;;
19940;SDS011;10132;50.864;5.176;2023-05-16T08:11:51;8.97;;;2.00;;
19940;SDS011;10132;50.864;5.176;2023-05-16T08:14:02;7.67;;;1.90;;
19940;SDS011;10132;50.864;5.176;2023-05-16T08:16:06;7.50;;;2.20;;
19940;SDS011;10132;50.864;5.176;2023-05-16T08:18:11;9.47;;;2.00;;
19940;SDS011;10132;50.864;5.176;2023-05-16T08:20:15;9.10;;;2.13;;
19940;SDS011;10132;50.864;5.176;2023-05-16T08:22:18;7.37;;;1.57;;
19940;SDS011;10132;50.864;5.176;2023-05-16T08:24:21;7.57;;;1.97;;
19940;SDS011;10132;50.864;5.176;2023-05-16T08:26:25;7.53;;;1.63;;
19940;SDS011;10132;50.864;5.176;2023-05-16T08:28:28;7.63;;;1.80;;
19940;SDS011;10132;50.864;5.176;2023-05-16T08:30:31;7.37;;;1.60;;
19940;SDS011;10132;50.864;5.176;2023-05-16T08:32:35;8.33;;;1.60;;
19940;SDS011;10132;50.864;5.176;2023-05-16T08:34:37;10.13;;;1.47;;
19940;SDS011;10132;50.864;5.176;2023-05-16T08:36:39;7.97;;;1.70;;
19940;SDS011;10132;50.864;5.176;2023-05-16T08:38:42;8.67;;;1.50;;
19940;SDS011;10132;50.864;5.176;2023-05-16T08:40:45;6.00;;;1.43;;
19940;SDS011;10132;50.864;5.176;2023-05-16T08:42:48;5.33;;;1.40;;
19940;SDS011;10132;50.864;5.176;2023-05-16T08:44:51;4.77;;;1.30;;
19940;SDS011;10132;50.864;5.176;2023-05-16T08:46:55;5.67;;;1.40;;
19940;SDS011;10132;50.864;5.176;2023-05-16T08:49:04;6.97;;;1.57;;
19940;SDS011;10132;50.864;5.176;2023-05-16T08:51:07;12.10;;;2.30;;
19940;SDS011;10132;50.864;5.176;2023-05-16T08:53:11;5.10;;;1.47;;
19940;SDS011;10132;50.864;5.176;2023-05-16T08:55:18;5.70;;;1.60;;
19940;SDS011;10132;50.864;5.176;2023-05-16T08:57:21;6.87;;;1.60;;
19940;SDS011;10132;50.864;5.176;2023-05-16T08:59:25;8.33;;;2.03;;
19940;SDS011;10132;50.864;5.176;2023-05-16T09:01:28;7.37;;;1.80;;
19940;SDS011;10132;50.864;5.176;2023-05-16T09:03:31;9.20;;;2.13;;
19940;SDS011;10132;50.864;5.176;2023-05-16T09:05:36;8.90;;;2.03;;
19940;SDS011;10132;50.864;5.176;2023-05-16T09:07:40;9.23;;;2.00;;
19940;SDS011;10132;50.864;5.176;2023-05-16T09:09:43;7.03;;;1.67;;
19940;SDS011;10132;50.864;5.176;2023-05-16T09:11:45;6.43;;;1.77;;
19940;SDS011;10132;50.864;5.176;2023-05-16T09:13:49;5.67;;;1.80;;
19940;SDS011;10132;50.864;5.176;2023-05-16T09:18:10;9.43;;;1.80;;
19940;SDS011;10132;50.864;5.176;2023-05-16T09:20:14;9.00;;;1.53;;
19940;SDS011;10132;50.864;5.176;2023-05-16T09:22:20;7.73;;;1.57;;
19940;SDS011;10132;50.864;5.176;2023-05-16T09:24:25;5.67;;;1.30;;
19940;SDS011;10132;50.864;5.176;2023-05-16T09:26:27;5.43;;;1.30;;
19940;SDS011;10132;50.864;5.176;2023-05-16T09:28:30;6.20;;;1.47;;
19940;SDS011;10132;50.864;5.176;2023-05-16T09:30:33;6.53;;;1.50;;
19940;SDS011;10132;50.864;5.176;2023-05-16T09:32:42;8.67;;;1.30;;
19940;SDS011;10132;50.864;5.176;2023-05-16T09:34:48;6.97;;;1.60;;
19940;SDS011;10132;50.864;5.176;2023-05-16T09:36:53;5.53;;;1.10;;
19940;SDS011;10132;50.864;5.176;2023-05-16T09:38:57;6.17;;;1.40;;
19940;SDS011;10132;50.864;5.176;2023-05-16T09:40:59;5.07;;;1.23;;
19940;SDS011;10132;50.864;5.176;2023-05-16T09:43:05;6.90;;;1.87;;
19940;SDS011;10132;50.864;5.176;2023-05-16T09:45:10;4.90;;;1.47;;
19940;SDS011;10132;50.864;5.176;2023-05-16T09:47:13;4.73;;;1.37;;
19940;SDS011;10132;50.864;5.176;2023-05-16T09:49:17;4.97;;;1.10;;
19940;SDS011;10132;50.864;5.176;2023-05-16T09:51:20;5.00;;;1.27;;
19940;SDS011;10132;50.864;5.176;2023-05-16T09:53:23;6.23;;;1.47;;
19940;SDS011;10132;50.864;5.176;2023-05-16T09:55:31;8.30;;;1.50;;
19940;SDS011;10132;50.864;5.176;2023-05-16T09:57:35;6.87;;;1.47;;
19940;SDS011;10132;50.864;5.176;2023-05-16T09:59:39;4.23;;;1.27;;
19940;SDS011;10132;50.864;5.176;2023-05-16T10:01:42;4.43;;;1.13;;
19940;SDS011;10132;50.864;5.176;2023-05-16T10:03:45;7.87;;;1.40;;
19940;SDS011;10132;50.864;5.176;2023-05-16T10:05:47;5.70;;;1.37;;
19940;SDS011;10132;50.864;5.176;2023-05-16T10:07:52;4.57;;;1.50;;
19940;SDS011;10132;50.864;5.176;2023-05-16T10:09:56;4.83;;;1.40;;
19940;SDS011;10132;50.864;5.176;2023-05-16T10:12:02;5.03;;;1.37;;
19940;SDS011;10132;50.864;5.176;2023-05-16T10:14:08;6.50;;;1.50;;
19940;SDS011;10132;50.864;5.176;2023-05-16T10:16:12;6.00;;;1.33;;
19940;SDS011;10132;50.864;5.176;2023-05-16T10:18:15;6.10;;;1.40;;
19940;SDS011;10132;50.864;5.176;2023-05-16T10:20:19;4.10;;;1.20;;
19940;SDS011;10132;50.864;5.176;2023-05-16T10:22:22;4.63;;;1.23;;
19940;SDS011;10132;50.864;5.176;2023-05-16T10:24:28;5.50;;;1.30;;
19940;SDS011;10132;50.864;5.176;2023-05-16T10:26:37;5.83;;;1.30;;
19940;SDS011;10132;50.864;5.176;2023-05-16T10:28:42;4.97;;;1.23;;
19940;SDS011;10132;50.864;5.176;2023-05-16T10:30:46;4.18;;;1.20;;
19940;SDS011;10132;50.864;5.176;2023-05-16T10:32:50;5.15;;;1.45;;
19940;SDS011;10132;50.864;5.176;2023-05-16T10:34:53;5.00;;;1.13;;
19940;SDS011;10132;50.864;5.176;2023-05-16T10:36:56;5.53;;;1.20;;
19940;SDS011;10132;50.864;5.176;2023-05-16T10:38:59;6.03;;;1.42;;
19940;SDS011;10132;50.864;5.176;2023-05-16T10:41:03;3.63;;;1.23;;
19940;SDS011;10132;50.864;5.176;2023-05-16T10:43:08;4.55;;;1.17;;
19940;SDS011;10132;50.864;5.176;2023-05-16T10:45:19;7.30;;;1.60;;
19940;SDS011;10132;50.864;5.176;2023-05-16T10:47:22;6.37;;;1.40;;
19940;SDS011;10132;50.864;5.176;2023-05-16T10:49:27;4.23;;;1.40;;
19940;SDS011;10132;50.864;5.176;2023-05-16T10:51:32;8.37;;;1.43;;
19940;SDS011;10132;50.864;5.176;2023-05-16T10:53:37;3.50;;;1.13;;
19940;SDS011;10132;50.864;5.176;2023-05-16T10:55:43;4.10;;;1.20;;
19940;SDS011;10132;50.864;5.176;2023-05-16T10:58:06;6.27;;;1.87;;
19940;SDS011;10132;50.864;5.176;2023-05-16T11:00:10;5.90;;;1.30;;
19940;SDS011;10132;50.864;5.176;2023-05-16T11:02:28;5.33;;;1.37;;
19940;SDS011;10132;50.864;5.176;2023-05-16T11:04:47;3.83;;;1.10;;
19940;SDS011;10132;50.864;5.176;2023-05-16T11:06:51;7.03;;;1.70;;
19940;SDS011;10132;50.864;5.176;2023-05-16T11:11:40;5.72;;;1.20;;
19940;SDS011;10132;50.864;5.176;2023-05-16T11:13:53;4.22;;;1.20;;
19940;SDS011;10132;50.864;5.176;2023-05-16T11:18:31;8.30;;;1.13;;
19940;SDS011;10132;50.864;5.176;2023-05-16T11:20:34;4.00;;;1.10;;
19940;SDS011;10132;50.864;5.176;2023-05-16T11:22:38;4.63;;;1.25;;
19940;SDS011;10132;50.864;5.176;2023-05-16T11:24:47;3.88;;;1.13;;
19940;SDS011;10132;50.864;5.176;2023-05-16T11:26:53;4.70;;;1.13;;
19940;SDS011;10132;50.864;5.176;2023-05-16T11:28:55;2.35;;;0.93;;
19940;SDS011;10132;50.864;5.176;2023-05-16T11:30:58;3.60;;;0.93;;
19940;SDS011;10132;50.864;5.176;2023-05-16T11:33:07;2.22;;;1.20;;
19940;SDS011;10132;50.864;5.176;2023-05-16T11:35:14;5.65;;;1.30;;
19940;SDS011;10132;50.864;5.176;2023-05-16T11:37:18;4.18;;;1.30;;
19940;SDS011;10132;50.864;5.176;2023-05-16T11:39:20;8.20;;;1.45;;
19940;SDS011;10132;50.864;5.176;2023-05-16T11:41:24;4.80;;;1.23;;
19940;SDS011;10132;50.864;5.176;2023-05-16T11:43:26;3.78;;;0.95;;
19940;SDS011;10132;50.864;5.176;2023-05-16T11:45:29;1.88;;;0.88;;
19940;SDS011;10132;50.864;5.176;2023-05-16T11:47:31;3.42;;;0.90;;
19940;SDS011;10132;50.864;5.176;2023-05-16T11:49:37;3.30;;;0.98;;
19940;SDS011;10132;50.864;5.176;2023-05-16T11:51:41;2.97;;;1.07;;
19940;SDS011;10132;50.864;5.176;2023-05-16T11:53:46;3.80;;;0.80;;
19940;SDS011;10132;50.864;5.176;2023-05-16T11:55:50;4.22;;;1.00;;
19940;SDS011;10132;50.864;5.176;2023-05-16T11:57:56;4.43;;;1.17;;
19940;SDS011;10132;50.864;5.176;2023-05-16T12:00:00;3.40;;;1.20;;
19940;SDS011;10132;50.864;5.176;2023-05-16T12:02:07;2.35;;;0.95;;
19940;SDS011;10132;50.864;5.176;2023-05-16T12:04:10;4.35;;;1.20;;
19940;SDS011;10132;50.864;5.176;2023-05-16T12:06:15;2.25;;;1.25;;
19940;SDS011;10132;50.864;5.176;2023-05-16T12:08:17;3.10;;;1.20;;
19940;SDS011;10132;50.864;5.176;2023-05-16T12:10:20;5.13;;;1.50;;
19940;SDS011;10132;50.864;5.176;2023-05-16T12:12:23;3.33;;;1.27;;
19940;SDS011;10132;50.864;5.176;2023-05-16T12:14:26;4.40;;;1.13;;
19940;SDS011;10132;50.864;5.176;2023-05-16T12:16:31;4.80;;;1.38;;
19940;SDS011;10132;50.864;5.176;2023-05-16T12:18:36;6.03;;;1.70;;
19940;SDS011;10132;50.864;5.176;2023-05-16T12:20:41;4.95;;;1.63;;
19940;SDS011;10132;50.864;5.176;2023-05-16T12:22:47;6.30;;;1.85;;
19940;SDS011;10132;50.864;5.176;2023-05-16T12:24:49;5.78;;;1.48;;
19940;SDS011;10132;50.864;5.176;2023-05-16T12:26:54;3.15;;;1.40;;
19940;SDS011;10132;50.864;5.176;2023-05-16T12:28:58;4.65;;;1.58;;
19940;SDS011;10132;50.864;5.176;2023-05-16T12:31:02;4.18;;;1.40;;
19940;SDS011;10132;50.864;5.176;2023-05-16T12:33:12;3.63;;;1.40;;